Latest Weather Observations for PORTABLE RFSNSW08

IDN60801

Issued at 8:42 pm EDT Monday 25 March 2019 (issued every 10 minutes, with the page automatically refreshed every 10 minutes)

About weather observations | Map of weather stations | Latest weather observations for NSW | Other Formats
Station Details ID: 250054 Name: PORTABLE RFSNSW08 Lat: -31.04 Lon: 149.37 Height: 573.0 m
Data from the previous 72 hours. | See also: Recent months for locations in New South Wales
Date/Time
EDT
Temp
°C
App
Temp
°C
Dew
Point
°C
Rel
Hum
%
Delta-T
°C
Wind Press
QNH
hPa
Press
MSL
hPa
Rain since
9am
mm
Dir  Spd
km/h
Gust
km/h
Spd
kts
Gust
kts
25/08:20pm 20.6 - 17.6 83 1.9 - - - - - - - 4.2
25/08:10pm 20.7 - 17.5 82 2.0 - - - - - - - 4.2
25/08:00pm 20.7 - 17.4 81 2.1 - - - - - - - 4.2
25/07:50pm 20.8 - 17.4 81 2.1 - - - - - - - 4.2
25/07:40pm 20.8 - 17.4 81 2.1 - - - - - - - 4.2
25/07:30pm 20.9 - 17.3 80 2.3 - - - - - - - 4.2
25/07:20pm 21.0 - 17.1 78 2.4 - - - - - - - 4.2
25/07:10pm 21.1 - 17.1 78 2.5 - - - - - - - 4.2
25/07:00pm 21.2 - 17.2 78 2.5 - - - - - - - 4.2
25/06:50pm 21.2 - 17.2 78 2.5 - - - - - - - 4.2
25/06:40pm 21.3 - 17.3 78 2.5 - - - - - - - 4.2
25/06:30pm 21.4 - 17.4 78 2.5 - - - - - - - 4.2
25/06:20pm 21.5 - 17.0 75 2.8 - - - - - - - 4.2
25/06:10pm 21.5 - 17.0 75 2.8 - - - - - - - 4.2
25/06:00pm 21.5 - 17.0 75 2.8 - - - - - - - 4.2
25/05:50pm 21.6 - 17.2 76 2.8 - - - - - - - 4.2
25/05:40pm 21.6 - 17.2 76 2.8 - - - - - - - 4.2
25/05:30pm 21.7 - 17.1 75 2.9 - - - - - - - 4.2
25/05:20pm 21.8 - 17.0 74 3.0 - - - - - - - 4.2
25/05:10pm 22.1 - 16.7 71 3.4 - - - - - - - 4.2
25/05:00pm 22.3 - 17.0 72 3.3 - - - - - - - 4.2
25/04:50pm 22.2 - 17.0 72 3.3 - - - - - - - 4.2
25/04:40pm 22.0 - 16.7 72 3.3 - - - - - - - 4.2
25/04:30pm 22.0 - 16.5 71 3.4 - - - - - - - 4.2
25/04:20pm 22.0 - 17.6 76 2.8 - - - - - - - 4.2
25/04:10pm 22.2 - 17.2 73 3.1 - - - - - - - 4.2
25/04:00pm 22.4 - 17.5 74 3.1 - - - - - - - 4.2
25/03:50pm 22.4 - 17.6 74 3.0 - - - - - - - 4.2
25/03:40pm 22.1 - 17.0 73 3.2 - - - - - - - 4.2
25/03:30pm 22.0 - 17.5 75 2.8 - - - - - - - 4.2
25/03:20pm 21.7 - 17.8 78 2.5 - - - - - - - 4.2
25/03:10pm 21.7 - 17.5 77 2.7 - - - - - - - 4.2
25/03:00pm 21.6 - 16.8 74 3.0 - - - - - - - 4.2
25/02:50pm 21.7 - 17.0 74 2.9 - - - - - - - 4.2
25/02:40pm 21.8 - 17.1 74 3.0 - - - - - - - 4.2
25/02:30pm 21.5 - 17.3 77 2.6 - - - - - - - 4.2
25/02:20pm 20.9 - 17.2 79 2.3 - - - - - - - 4.2
25/02:10pm 20.5 - 17.9 85 1.6 - - - - - - - 4.2
25/02:00pm 20.0 - 17.9 88 1.3 - - - - - - - 4.2
25/01:50pm 19.7 - 17.7 88 1.3 - - - - - - - 4.2
25/01:40pm 19.3 - 18.3 94 0.6 - - - - - - - 4.2
25/01:30pm 19.2 - 18.2 94 0.6 - - - - - - - 4.2
25/01:20pm 19.1 - 18.2 94 0.6 - - - - - - - 4.2
25/01:10pm 19.2 - 18.3 94 0.6 - - - - - - - 4.2
25/01:00pm 19.2 - 18.4 95 0.5 - - - - - - - 3.8
25/12:50pm 19.3 - 18.3 94 0.6 - - - - - - - 3.6
25/12:40pm 19.3 - 18.4 94 0.6 - - - - - - - 3.4
25/12:30pm 19.3 - 18.5 95 0.5 - - - - - - - 2.6
25/12:20pm 19.4 - 18.5 94 0.6 - - - - - - - 2.4
25/12:10pm 19.4 - 18.4 94 0.6 - - - - - - - 2.0
25/12:00pm 19.4 - 18.2 93 0.8 - - - - - - - 1.8
25/11:50am 19.5 - 18.4 93 0.7 - - - - - - - 1.6
25/11:40am 19.5 - 18.2 92 0.8 - - - - - - - 1.6
25/11:30am 19.5 - 18.5 94 0.6 - - - - - - - 1.4
25/11:20am 19.5 - 18.4 93 0.7 - - - - - - - 1.0
25/11:10am 19.6 - 18.4 93 0.8 - - - - - - - 0.4
25/11:00am 19.6 - 18.2 92 0.9 - - - - - - - 0.2
25/10:50am 19.4 - 18.1 92 0.8 - - - - - - - 0.0
25/10:40am 19.0 - 18.0 94 0.6 - - - - - - - 0.0
25/10:30am 18.8 - 17.8 94 0.6 - - - - - - - 0.0
25/10:20am 18.6 - 17.6 94 0.6 - - - - - - - 0.0
25/10:10am 18.5 - 17.4 93 0.7 - - - - - - - 0.0
25/10:00am 18.4 - 17.3 93 0.7 - - - - - - - 0.8
25/09:50am 18.4 - 17.3 93 0.7 - - - - - - - 0.6
25/09:40am 18.4 - 17.0 91 0.9 - - - - - - - 0.6
25/09:30am 18.3 - 17.0 92 0.8 - - - - - - - 0.4
25/09:20am 18.2 - 16.9 92 0.8 - - - - - - - 0.4
25/09:10am 18.3 - 16.9 91 0.9 - - - - - - - 0.4
25/09:00am 18.5 - 16.8 90 1.0 - - - - - - - 0.2
25/08:50am 19.2 - 16.4 84 1.7 - - - - - - - 0.0
25/08:40am 19.4 - 16.0 81 2.1 - - - - - - - 0.0
25/08:30am 19.5 - 15.9 80 2.2 - - - - - - - 0.0
25/08:20am 19.5 - 15.8 79 2.3 - - - - - - - 0.0
25/08:10am 19.6 - 15.8 79 2.3 - - - - - - - 0.0
25/08:00am 20.3 - 16.1 77 2.6 - - - - - - - 0.0
25/07:50am 21.0 - 16.2 74 3.0 - - - - - - - 0.0
25/07:40am 21.5 - 16.0 71 3.4 - - - - - - - 0.0
25/07:30am 21.8 - 15.8 68 3.7 - - - - - - - 0.0
25/07:20am 22.0 - 15.7 67 3.9 - - - - - - - 0.0
25/07:10am 22.3 - 15.4 65 4.2 - - - - - - - 0.0
25/07:00am 22.3 - 15.3 64 4.3 - - - - - - - 0.0
25/06:50am 22.3 - 15.4 65 4.2 - - - - - - - 0.0
25/06:40am 22.6 - 15.6 64 4.3 - - - - - - - 0.0
25/06:30am 22.7 - 15.4 63 4.5 - - - - - - - 0.0
25/06:20am 22.9 - 15.4 62 4.6 - - - - - - - 0.0
25/06:10am 22.7 - 15.0 61 4.7 - - - - - - - 0.0
25/06:00am 22.4 - 15.4 64 4.3 - - - - - - - 0.0
25/05:50am 22.5 - 15.4 64 4.3 - - - - - - - 0.0
25/05:40am 22.5 - 15.4 64 4.3 - - - - - - - 0.0
25/05:30am 22.6 - 15.5 64 4.4 - - - - - - - 0.0
25/05:20am 22.6 - 15.4 64 4.4 - - - - - - - 0.0
25/05:10am 22.7 - 15.4 63 4.5 - - - - - - - 0.0
25/05:00am 22.8 - 15.4 63 4.5 - - - - - - - 0.0
25/04:50am 22.9 - 15.5 63 4.5 - - - - - - - 0.0
25/04:40am 23.0 - 15.2 61 4.8 - - - - - - - 0.0
25/04:30am 22.9 - 15.3 62 4.7 - - - - - - - 0.0
25/04:20am 23.0 - 15.4 62 4.7 - - - - - - - 0.0
25/04:10am 23.5 - 15.2 59 5.1 - - - - - - - 0.0
25/04:00am 23.7 - 14.4 56 5.6 - - - - - - - 0.0
25/03:50am 23.9 - 14.3 55 5.8 - - - - - - - 0.0
25/03:40am 23.9 - 14.5 55 5.7 - - - - - - - 0.0
25/03:30am 24.0 - 14.2 54 5.9 - - - - - - - 0.0
25/03:20am 24.0 - 14.1 54 6.0 - - - - - - - 0.0
25/03:10am 24.0 - 14.2 54 5.9 - - - - - - - 0.0
25/03:00am 24.1 - 14.4 54 5.9 - - - - - - - 0.0
25/02:50am 24.1 - 14.0 53 6.1 - - - - - - - 0.0
25/02:40am 23.8 - 14.2 55 5.8 - - - - - - - 0.0
25/02:30am 23.9 - 14.3 55 5.8 - - - - - - - 0.0
25/02:20am 23.9 - 14.5 55 5.7 - - - - - - - 0.0
25/02:10am 24.0 - 14.4 55 5.8 - - - - - - - 0.0
25/02:00am 24.0 - 14.5 55 5.8 - - - - - - - 0.0
25/01:50am 24.1 - 14.6 55 5.8 - - - - - - - 0.0
25/01:40am 24.2 - 14.5 54 5.9 - - - - - - - 0.0
25/01:30am 24.3 - 14.5 54 6.0 - - - - - - - 0.0
25/01:20am 24.4 - 14.5 54 6.0 - - - - - - - 0.0
25/01:10am 24.6 - 14.5 53 6.1 - - - - - - - 0.0
25/01:00am 24.7 - 14.7 53 6.1 - - - - - - - 0.0
25/12:50am 24.7 - 14.7 53 6.1 - - - - - - - 0.0
25/12:40am 24.8 - 14.6 53 6.2 - - - - - - - 0.0
25/12:30am 24.9 - 14.6 52 6.3 - - - - - - - 0.0
25/12:20am 25.0 - 14.2 51 6.6 - - - - - - - 0.0
25/12:10am 25.3 - 14.1 50 6.8 - - - - - - - 0.0
25/12:00am 25.7 - 14.0 48 7.1 - - - - - - - 0.0
 
Date/Time
EDT
Temp
°C
App
Temp
°C
Dew
Point
°C
Rel
Hum
%
Delta-T
°C
Wind Press
QNH
hPa
Press
MSL
hPa
Rain since
9am
mm
Dir  Spd
km/h
Gust
km/h
Spd
kts
Gust
kts
24/11:50pm 25.9 - 12.7 44 7.8 - - - - - - - 0.0
24/11:40pm 25.9 - 12.6 43 7.9 - - - - - - - 0.0
24/11:30pm 26.1 - 12.6 43 8.0 - - - - - - - 0.0
24/11:20pm 26.5 - 12.4 41 8.4 - - - - - - - 0.0
24/11:10pm 26.5 - 12.3 41 8.4 - - - - - - - 0.0
24/11:00pm 26.7 - 12.3 40 8.5 - - - - - - - 0.0
24/10:50pm 26.7 - 12.5 41 8.4 - - - - - - - 0.0
24/10:40pm 26.8 - 12.4 40 8.6 - - - - - - - 0.0
24/10:30pm 26.9 - 12.4 40 8.6 - - - - - - - 0.0
24/10:20pm 26.9 - 12.4 40 8.6 - - - - - - - 0.0
24/10:10pm 27.1 - 12.6 40 8.6 - - - - - - - 0.0
24/10:00pm 27.3 - 12.3 39 8.9 - - - - - - - 0.0
24/09:50pm 27.3 - 12.5 40 8.8 - - - - - - - 0.0
24/09:40pm 27.4 - 12.5 39 8.9 - - - - - - - 0.0
24/09:30pm 27.6 - 12.5 39 9.0 - - - - - - - 0.0
24/09:20pm 27.6 - 12.5 39 9.0 - - - - - - - 0.0
24/09:10pm 27.6 - 12.9 40 8.8 - - - - - - - 0.0
24/09:00pm 27.6 - 13.3 41 8.6 - - - - - - - 0.0
24/08:50pm 27.9 - 13.2 40 8.9 - - - - - - - 0.0
24/08:40pm 28.6 - 13.0 38 9.4 - - - - - - - 0.0
24/08:30pm 29.1 - 12.6 36 9.9 - - - - - - - 0.0
24/08:20pm 29.3 - 12.6 35 10.1 - - - - - - - 0.0
24/08:10pm 30.0 - 10.9 30 11.2 - - - - - - - 0.0
24/08:00pm 30.1 - 10.8 30 11.3 - - - - - - - 0.0
24/07:50pm 30.3 - 10.8 30 11.5 - - - - - - - 0.0
24/07:40pm 30.4 - 10.7 29 11.6 - - - - - - - 0.0
24/07:30pm 30.5 - 10.8 29 11.6 - - - - - - - 0.0
24/07:20pm 30.6 - 10.7 29 11.7 - - - - - - - 0.0
24/07:10pm 30.8 - 10.8 29 11.8 - - - - - - - 0.0
24/07:00pm 31.1 - 10.8 28 12.0 - - - - - - - 0.0
24/06:50pm 31.4 - 10.8 28 12.2 - - - - - - - 0.0
24/06:40pm 31.8 - 10.9 27 12.4 - - - - - - - 0.0
24/06:30pm 32.0 - 11.0 27 12.5 - - - - - - - 0.0
24/06:20pm 32.3 - 11.0 27 12.7 - - - - - - - 0.0
24/06:00pm 32.6 - 11.3 27 12.7 - - - - - - - 0.0
24/05:50pm 32.8 - 11.2 26 12.9 - - - - - - - 0.0
24/05:40pm 33.1 - 11.0 26 13.2 - - - - - - - 0.0
24/05:30pm 32.8 - 10.8 26 13.1 - - - - - - - 0.0
24/05:20pm 32.5 - 10.7 26 12.9 - - - - - - - 0.0
24/05:10pm 32.9 - 11.0 26 13.0 - - - - - - - 0.0
24/05:00pm 33.4 - 10.7 25 13.5 - - - - - - - 0.0
24/04:50pm 34.0 - 10.8 24 13.8 - - - - - - - 0.0
24/04:40pm 33.7 - 10.6 24 13.7 - - - - - - - 0.0
24/04:30pm 33.5 - 10.9 25 13.5 - - - - - - - 0.0
24/04:20pm 34.7 - 10.9 23 14.3 - - - - - - - 0.0
24/04:10pm 34.8 - 10.8 23 14.4 - - - - - - - 0.0
24/04:00pm 34.9 - 11.1 23 14.3 - - - - - - - 0.0
24/03:50pm 35.5 - 10.8 22 14.8 - - - - - - - 0.0
24/03:40pm 33.8 - 11.0 25 13.6 - - - - - - - 0.0
24/03:30pm 33.9 - 11.2 25 13.6 - - - - - - - 0.0
24/03:20pm 34.0 - 11.6 25 13.5 - - - - - - - 0.0
24/03:10pm 33.3 - 11.6 26 13.1 - - - - - - - 0.0
24/03:00pm 33.0 - 11.4 26 13.0 - - - - - - - 0.0
24/02:50pm 32.5 - 11.7 28 12.5 - - - - - - - 0.0
24/02:40pm 33.1 - 11.6 27 12.9 - - - - - - - 0.0
24/02:30pm 33.0 - 11.7 27 12.8 - - - - - - - 0.0
24/02:20pm 32.8 - 11.5 27 12.8 - - - - - - - 0.0
24/02:10pm 33.3 - 11.5 26 13.1 - - - - - - - 0.0
24/02:00pm 33.8 - 11.6 26 13.4 - - - - - - - 0.0
24/01:50pm 32.7 - 11.6 27 12.7 - - - - - - - 0.0
24/01:40pm 32.7 - 11.7 27 12.6 - - - - - - - 0.0
24/01:30pm 32.7 - 11.5 27 12.7 - - - - - - - 0.0
24/01:20pm 32.7 - 11.7 27 12.6 - - - - - - - 0.0
24/01:10pm 33.5 - 11.4 26 13.3 - - - - - - - 0.0
24/01:00pm 32.8 - 12.2 28 12.5 - - - - - - - 0.0
24/12:50pm 33.5 - 12.0 27 13.0 - - - - - - - 0.0
24/12:40pm 32.9 - 12.0 28 12.6 - - - - - - - 0.0
24/12:30pm 32.7 - 12.2 28 12.4 - - - - - - - 0.0
24/12:20pm 32.7 - 12.5 29 12.3 - - - - - - - 0.0
24/12:10pm 32.6 - 12.1 28 12.4 - - - - - - - 0.0
24/12:00pm 32.5 - 12.0 28 12.4 - - - - - - - 0.0
24/11:50am 32.2 - 12.2 29 12.1 - - - - - - - 0.0
24/11:40am 32.6 - 12.0 28 12.4 - - - - - - - 0.0
24/11:30am 32.1 - 12.3 29 12.0 - - - - - - - 0.0
24/11:20am 31.4 - 12.3 31 11.5 - - - - - - - 0.0
24/11:10am 31.6 - 12.3 30 11.7 - - - - - - - 0.0
24/11:00am 31.3 - 12.2 31 11.5 - - - - - - - 0.0
24/10:50am 31.4 - 12.4 31 11.5 - - - - - - - 0.0
24/10:40am 30.8 - 12.6 32 11.0 - - - - - - - 0.0
24/10:30am 30.5 - 12.5 33 10.9 - - - - - - - 0.0
24/10:20am 30.4 - 12.3 33 10.9 - - - - - - - 0.0
24/10:10am 30.3 - 12.5 33 10.7 - - - - - - - 0.0
24/10:00am 29.7 - 12.4 34 10.4 - - - - - - - 0.0
24/09:50am 29.4 - 12.8 36 10.0 - - - - - - - 0.0
24/09:40am 29.3 - 12.9 36 9.9 - - - - - - - 0.0
24/09:30am 29.0 - 12.9 37 9.7 - - - - - - - 0.0
24/09:20am 28.6 - 12.9 38 9.5 - - - - - - - 0.0
24/09:10am 28.2 - 12.9 38 9.2 - - - - - - - 0.0
24/09:00am 27.3 - 13.4 42 8.4 - - - - - - - 0.0
24/08:50am 26.6 - 13.6 44 7.9 - - - - - - - 0.0
24/08:40am 25.8 - 14.0 48 7.2 - - - - - - - 0.0
24/08:30am 24.9 - 14.4 52 6.4 - - - - - - - 0.0
24/08:20am 24.1 - 14.4 54 5.9 - - - - - - - 0.0
24/08:10am 23.4 - 14.6 57 5.3 - - - - - - - 0.0
24/08:00am 23.1 - 14.9 60 5.0 - - - - - - - 0.0
24/07:50am 22.9 - 15.1 61 4.8 - - - - - - - 0.0
24/07:40am 22.9 - 15.0 61 4.8 - - - - - - - 0.0
24/07:30am 22.7 - 14.8 61 4.8 - - - - - - - 0.0
24/07:20am 22.6 - 14.7 61 4.8 - - - - - - - 0.0
24/07:10am 22.6 - 14.8 61 4.7 - - - - - - - 0.0
24/07:00am 22.7 - 14.7 60 4.8 - - - - - - - 0.0
24/06:50am 23.1 - 14.6 58 5.2 - - - - - - - 0.0
24/06:40am 23.9 - 14.2 54 5.9 - - - - - - - 0.0
24/06:30am 24.3 - 13.8 52 6.3 - - - - - - - 0.0
24/06:20am 24.6 - 13.5 50 6.6 - - - - - - - 0.0
24/06:10am 25.0 - 13.3 48 7.0 - - - - - - - 0.0
24/06:00am 25.4 - 13.1 46 7.3 - - - - - - - 0.0
24/05:50am 25.6 - 12.9 45 7.6 - - - - - - - 0.0
24/05:40am 25.6 - 13.0 45 7.5 - - - - - - - 0.0
24/05:30am 25.6 - 12.8 45 7.6 - - - - - - - 0.0
24/05:20am 25.5 - 12.9 45 7.5 - - - - - - - 0.0
24/05:10am 25.6 - 13.0 45 7.5 - - - - - - - 0.0
24/05:00am 25.4 - 12.8 45 7.5 - - - - - - - 0.0
24/04:50am 25.2 - 13.1 47 7.2 - - - - - - - 0.0
24/04:40am 24.9 - 13.2 48 7.0 - - - - - - - 0.0
24/04:30am 25.0 - 13.6 49 6.9 - - - - - - - 0.0
24/04:20am 25.2 - 13.0 46 7.3 - - - - - - - 0.0
24/04:10am 24.8 - 13.4 49 6.8 - - - - - - - 0.0
24/04:00am 24.4 - 13.7 51 6.4 - - - - - - - 0.0
24/03:50am 24.7 - 14.0 51 6.5 - - - - - - - 0.0
24/03:40am 25.2 - 13.5 48 7.0 - - - - - - - 0.0
24/03:30am 25.3 - 13.6 48 7.0 - - - - - - - 0.0
24/03:20am 25.1 - 13.6 49 6.9 - - - - - - - 0.0
24/03:10am 25.0 - 13.6 49 6.9 - - - - - - - 0.0
24/03:00am 25.1 - 13.5 48 7.0 - - - - - - - 0.0
24/02:50am 25.2 - 13.3 47 7.1 - - - - - - - 0.0
24/02:40am 25.5 - 13.3 46 7.3 - - - - - - - 0.0
24/02:30am 25.8 - 13.2 45 7.5 - - - - - - - 0.0
24/02:20am 26.0 - 13.3 45 7.6 - - - - - - - 0.0
24/02:10am 26.3 - 13.1 44 7.9 - - - - - - - 0.0
24/02:00am 26.5 - 12.6 42 8.3 - - - - - - - 0.0
24/01:50am 26.6 - 12.4 41 8.4 - - - - - - - 0.0
24/01:40am 26.9 - 12.2 40 8.7 - - - - - - - 0.0
24/01:30am 27.1 - 12.1 39 8.9 - - - - - - - 0.0
24/01:20am 27.4 - 12.1 38 9.1 - - - - - - - 0.0
24/01:10am 27.6 - 11.9 37 9.3 - - - - - - - 0.0
24/01:00am 27.8 - 11.9 37 9.4 - - - - - - - 0.0
24/12:50am 27.8 - 12.0 37 9.4 - - - - - - - 0.0
24/12:40am 27.8 - 12.0 37 9.4 - - - - - - - 0.0
24/12:30am 27.9 - 12.0 37 9.4 - - - - - - - 0.0
24/12:20am 27.9 - 12.2 37 9.3 - - - - - - - 0.0
24/12:10am 28.0 - 12.1 37 9.4 - - - - - - - 0.0
24/12:00am 28.1 - 12.2 37 9.5 - - - - - - - 0.0
 
Date/Time
EDT
Temp
°C
App
Temp
°C
Dew
Point
°C
Rel
Hum
%
Delta-T
°C
Wind Press
QNH
hPa
Press
MSL
hPa
Rain since
9am
mm
Dir  Spd
km/h
Gust
km/h
Spd
kts
Gust
kts
23/11:50pm 28.2 - 12.1 37 9.6 - - - - - - - 0.0
23/11:40pm 28.3 - 12.1 36 9.6 - - - - - - - 0.0
23/11:30pm 28.4 - 11.9 36 9.8 - - - - - - - 0.0
23/11:20pm 28.7 - 11.7 35 10.1 - - - - - - - 0.0
23/11:10pm 29.0 - 11.4 33 10.4 - - - - - - - 0.0
23/11:00pm 29.2 - 11.1 32 10.6 - - - - - - - 0.0
23/10:50pm 29.3 - 11.1 32 10.7 - - - - - - - 0.0
23/10:40pm 29.4 - 11.3 32 10.7 - - - - - - - 0.0
23/10:30pm 29.3 - 10.8 31 10.8 - - - - - - - 0.0
23/10:20pm 29.7 - 11.1 31 11.0 - - - - - - - 0.0
23/10:10pm 30.1 - 10.2 29 11.6 - - - - - - - 0.0
23/10:00pm 30.3 - 10.0 28 11.8 - - - - - - - 0.0
23/09:50pm 30.2 - 10.0 28 11.7 - - - - - - - 0.0
23/09:40pm 30.3 - 10.3 29 11.7 - - - - - - - 0.0
23/09:30pm 30.5 - 10.2 28 11.8 - - - - - - - 0.0
23/09:20pm 30.7 - 10.1 28 12.0 - - - - - - - 0.0
23/09:10pm 30.7 - 10.1 28 12.0 - - - - - - - 0.0
23/09:00pm 30.8 - 10.3 28 12.0 - - - - - - - 0.0
23/08:50pm 30.8 - 10.2 28 12.0 - - - - - - - 0.0
23/08:40pm 30.8 - 10.3 28 12.0 - - - - - - - 0.0
23/08:30pm 30.8 - 10.4 28 11.9 - - - - - - - 0.0
23/08:20pm 30.7 - 10.6 29 11.8 - - - - - - - 0.0
23/08:10pm 30.8 - 10.8 29 11.8 - - - - - - - 0.0
23/08:00pm 30.8 - 10.8 29 11.8 - - - - - - - 0.0
23/07:50pm 30.9 - 10.8 29 11.8 - - - - - - - 0.0
23/07:40pm 31.0 - 10.7 28 11.9 - - - - - - - 0.0
23/07:30pm 31.1 - 10.7 28 12.0 - - - - - - - 0.0
23/07:20pm 31.3 - 10.6 28 12.2 - - - - - - - 0.0
23/07:10pm 31.4 - 10.6 27 12.2 - - - - - - - 0.0
23/07:00pm 31.7 - 10.7 27 12.4 - - - - - - - 0.0
23/06:50pm 31.9 - 10.6 27 12.6 - - - - - - - 0.0
23/06:40pm 32.2 - 10.7 26 12.7 - - - - - - - 0.0
23/06:30pm 32.5 - 10.6 26 12.9 - - - - - - - 0.0
23/06:20pm 32.9 - 10.6 25 13.2 - - - - - - - 0.0
23/06:00pm 33.4 - 10.5 24 13.6 - - - - - - - 0.0
23/05:50pm 33.9 - 10.8 24 13.8 - - - - - - - 0.0
23/05:40pm 34.5 - 11.2 24 14.0 - - - - - - - 0.0
23/05:30pm 34.4 - 10.8 23 14.1 - - - - - - - 0.0
23/05:20pm 34.2 - 10.2 23 14.2 - - - - - - - 0.0
23/05:10pm 34.3 - 10.8 24 14.0 - - - - - - - 0.0
23/05:00pm 32.9 - 11.2 26 13.0 - - - - - - - 0.0
23/04:50pm 32.3 - 11.5 28 12.5 - - - - - - - 0.0
23/04:40pm 32.4 - 12.3 29 12.2 - - - - - - - 0.0
23/04:30pm 32.7 - 12.3 28 12.4 - - - - - - - 0.0
23/04:20pm 32.7 - 11.9 28 12.6 - - - - - - - 0.0
23/04:10pm 33.3 - 12.0 27 12.9 - - - - - - - 0.0
23/04:00pm 33.3 - 12.5 28 12.7 - - - - - - - 0.0
23/03:50pm 33.1 - 12.4 28 12.6 - - - - - - - 0.0
23/03:40pm 33.3 - 11.6 26 13.1 - - - - - - - 0.0
23/03:30pm 33.3 - 13.1 29 12.4 - - - - - - - 0.0
23/03:20pm 35.1 - 13.4 27 13.5 - - - - - - - 0.0
23/03:10pm 34.7 - 13.2 27 13.3 - - - - - - - 0.0
23/03:00pm 33.7 - 12.8 28 12.8 - - - - - - - 0.0
23/02:50pm 33.3 - 13.8 30 12.1 - - - - - - - 0.0
23/02:40pm 33.5 - 13.6 30 12.4 - - - - - - - 0.0
23/02:30pm 33.7 - 13.9 30 12.4 - - - - - - - 0.0
23/02:20pm 33.4 - 14.3 31 12.0 - - - - - - - 0.0
23/02:10pm 33.3 - 13.2 29 12.4 - - - - - - - 0.0
23/02:00pm 32.6 - 13.9 32 11.6 - - - - - - - 0.0
23/01:50pm 32.0 - 14.4 34 11.0 - - - - - - - 0.0
23/01:40pm 32.2 - 14.9 35 10.9 - - - - - - - 0.0
23/01:30pm 32.0 - 14.7 35 10.9 - - - - - - - 0.0
23/01:20pm 32.3 - 15.1 35 10.9 - - - - - - - 0.0
23/01:10pm 31.3 - 15.3 38 10.1 - - - - - - - 0.0
23/01:00pm 31.4 - 15.3 37 10.2 - - - - - - - 0.0
23/12:50pm 30.9 - 15.9 40 9.5 - - - - - - - 0.0
23/12:40pm 31.0 - 16.3 41 9.4 - - - - - - - 0.0
23/12:30pm 30.5 - 16.1 41 9.2 - - - - - - - 0.0
23/12:20pm 29.6 - 16.1 44 8.6 - - - - - - - 0.0
23/12:10pm 29.5 - 16.7 46 8.2 - - - - - - - 0.0
23/12:00pm 29.7 - 15.9 43 8.7 - - - - - - - 0.0
23/11:50am 29.1 - 16.2 45 8.2 - - - - - - - 0.0
23/11:40am 28.9 - 16.4 46 8.0 - - - - - - - 0.0
23/11:30am 28.4 - 16.2 47 7.7 - - - - - - - 0.0
23/11:20am 28.4 - 16.2 47 7.7 - - - - - - - 0.0
23/11:10am 27.6 - 16.1 49 7.3 - - - - - - - 0.0
23/11:00am 27.7 - 16.2 49 7.3 - - - - - - - 0.0
23/10:50am 27.6 - 16.2 49 7.2 - - - - - - - 0.0
23/10:40am 26.8 - 16.0 51 6.8 - - - - - - - 0.0
23/10:30am 26.2 - 15.9 53 6.4 - - - - - - - 0.0
23/10:20am 25.9 - 15.6 53 6.4 - - - - - - - 0.0
23/10:10am 25.5 - 16.3 56 5.8 - - - - - - - 0.0
23/10:00am 25.4 - 16.1 56 5.8 - - - - - - - 2.0
23/09:50am 24.9 - 16.2 58 5.4 - - - - - - - 2.0
23/09:40am 24.9 - 15.9 57 5.6 - - - - - - - 2.0
23/09:30am 24.2 - 15.5 58 5.4 - - - - - - - 2.0
23/09:20am 23.8 - 15.1 58 5.3 - - - - - - - 2.0
23/09:10am 23.3 - 14.4 57 5.4 - - - - - - - 2.0
23/09:00am 23.2 - 14.4 57 5.3 - - - - - - - 2.0
23/08:50am 22.4 - 13.5 57 5.3 - - - - - - - 2.0
23/08:40am 21.8 - 13.1 57 5.1 - - - - - - - 2.0
23/08:30am 21.2 - 12.8 58 4.9 - - - - - - - 2.0
23/08:20am 20.9 - 12.6 59 4.8 - - - - - - - 2.0
23/08:10am 20.6 - 12.4 59 4.7 - - - - - - - 2.0
23/08:00am 20.0 - 11.9 59 4.6 - - - - - - - 2.0
23/07:50am 19.7 - 12.2 62 4.3 - - - - - - - 2.0
23/07:40am 19.5 - 11.8 61 4.4 - - - - - - - 2.0
23/07:30am 18.9 - 11.8 63 4.0 - - - - - - - 2.0
23/07:20am 18.5 - 12.0 66 3.7 - - - - - - - 2.0
23/07:10am 18.4 - 11.9 66 3.7 - - - - - - - 2.0
23/07:00am 18.3 - 12.0 66 3.6 - - - - - - - 2.0
23/06:50am 18.5 - 12.1 66 3.6 - - - - - - - 2.0
23/06:40am 18.7 - 12.0 65 3.8 - - - - - - - 2.0
23/06:30am 18.8 - 11.8 64 4.0 - - - - - - - 2.0
23/06:20am 18.4 - 12.0 66 3.6 - - - - - - - 2.0
23/06:00am 18.7 - 11.9 64 3.9 - - - - - - - 2.0
23/05:50am 18.4 - 12.2 67 3.5 - - - - - - - 2.0
23/05:40am 18.4 - 11.8 65 3.7 - - - - - - - 2.0
23/05:30am 18.4 - 12.0 66 3.6 - - - - - - - 2.0
23/05:20am 18.4 - 11.9 66 3.7 - - - - - - - 2.0
23/05:10am 18.2 - 11.7 66 3.7 - - - - - - - 2.0
23/05:00am 17.8 - 11.8 68 3.4 - - - - - - - 2.0
23/04:50am 17.5 - 12.0 70 3.1 - - - - - - - 2.0
23/04:40am 17.2 - 12.2 72 2.8 - - - - - - - 2.0
23/04:30am 17.3 - 12.3 72 2.8 - - - - - - - 2.0
23/04:20am 17.6 - 12.1 70 3.1 - - - - - - - 2.0
23/04:10am 17.7 - 12.2 70 3.1 - - - - - - - 2.0
23/04:00am 17.6 - 12.2 70 3.1 - - - - - - - 2.0
23/03:50am 17.7 - 12.4 71 3.0 - - - - - - - 2.0
23/03:40am 17.4 - 12.2 71 2.9 - - - - - - - 2.0
23/03:30am 17.4 - 12.4 72 2.8 - - - - - - - 2.0
23/03:20am 17.3 - 12.4 73 2.8 - - - - - - - 2.0
23/03:10am 17.2 - 12.5 74 2.7 - - - - - - - 2.0
23/03:00am 17.1 - 12.4 74 2.7 - - - - - - - 2.0
23/02:50am 17.2 - 12.7 75 2.6 - - - - - - - 2.0
23/02:40am 17.1 - 12.9 76 2.4 - - - - - - - 2.0
23/02:30am 16.9 - 12.8 77 2.3 - - - - - - - 2.0
23/02:20am 16.9 - 13.1 78 2.2 - - - - - - - 2.0
23/02:10am 17.0 - 12.9 77 2.3 - - - - - - - 2.0
23/02:00am 16.8 - 13.1 79 2.1 - - - - - - - 2.0
23/01:50am 16.7 - 13.1 79 2.1 - - - - - - - 2.0
23/01:40am 16.7 - 13.3 80 2.0 - - - - - - - 2.0
23/01:30am 16.8 - 13.4 80 2.0 - - - - - - - 2.0
23/01:20am 17.0 - 13.3 79 2.1 - - - - - - - 2.0
23/01:10am 16.9 - 13.3 79 2.1 - - - - - - - 2.0
23/01:00am 17.0 - 13.5 80 2.0 - - - - - - - 2.0
23/12:50am 16.9 - 13.4 80 2.0 - - - - - - - 2.0
23/12:40am 16.8 - 13.3 80 2.0 - - - - - - - 2.0
23/12:30am 16.7 - 13.5 81 1.9 - - - - - - - 2.0
23/12:20am 16.9 - 13.4 80 2.0 - - - - - - - 2.0
23/12:10am 16.9 - 13.4 80 2.0 - - - - - - - 2.0
23/12:00am 17.0 - 13.4 79 2.1 - - - - - - - 2.0
 
Date/Time
EDT
Temp
°C
App
Temp
°C
Dew
Point
°C
Rel
Hum
%
Delta-T
°C
Wind Press
QNH
hPa
Press
MSL
hPa
Rain since
9am
mm
Dir  Spd
km/h
Gust
km/h
Spd
kts
Gust
kts
22/11:50pm 17.1 - 13.6 80 2.0 - - - - - - - 2.0
22/11:40pm 17.0 - 13.5 80 2.0 - - - - - - - 2.0
22/11:30pm 17.1 - 13.6 80 2.0 - - - - - - - 2.0
22/11:20pm 17.2 - 13.8 80 2.0 - - - - - - - 2.0
22/11:10pm 17.3 - 14.1 81 1.9 - - - - - - - 2.0
22/11:00pm 17.5 - 13.9 79 2.1 - - - - - - - 2.0
22/10:50pm 17.5 - 14.0 80 2.1 - - - - - - - 2.0
22/10:40pm 17.6 - 13.6 77 2.3 - - - - - - - 2.0
22/10:30pm 17.5 - 13.6 78 2.3 - - - - - - - 2.0
22/10:20pm 17.2 - 13.5 79 2.1 - - - - - - - 2.0
22/10:10pm 17.3 - 14.0 81 1.9 - - - - - - - 2.0
22/10:00pm 17.3 - 13.7 79 2.1 - - - - - - - 2.0
22/09:50pm 18.0 - 13.8 76 2.5 - - - - - - - 2.0
22/09:40pm 18.3 - 12.8 70 3.2 - - - - - - - 1.8
22/09:30pm 18.4 - 12.6 69 3.3 - - - - - - - 1.8
22/09:20pm 18.3 - 12.5 69 3.3 - - - - - - - 1.8
22/09:10pm 18.0 - 13.0 72 2.9 - - - - - - - 1.8
22/09:00pm 18.1 - 12.5 70 3.2 - - - - - - - 1.8
22/08:50pm 18.4 - 12.7 69 3.3 - - - - - - - 1.8

Other formats

Comma delimited format used in spreadsheet applications
http://www.bom.gov.au/fwo/IDN60801/IDN60801.99111.axf

JavaScript Object Notation format (JSON) in row-major order
http://www.bom.gov.au/fwo/IDN60801/IDN60801.99111.json

Data quality

Most of these data are generated automatically and are frequently updated. Quality checks on data are not normally performed. It is possible for incorrect values to appear. Refer to information at About Latest Weather Observations and please check the disclaimer before using these data.